Time;durP1;ratioP1;P1;durP2;ratioP2;P2;SDS_P1;SDS_P2;PMS_P1;PMS_P2;Temp;Humidity;BMP_temperature;BMP_pressure;BME280_temperature;BME280_humidity;BME280_pressure;Samples;Min_cycle;Max_cycle;Signal;HPM_P1;HPM_P2
2023/01/25 00:02:03;;;;;;;24.58;17.80;;;2.30;99.90;;;;;;5108326;28;20279;-79
2023/01/25 00:04:31;;;;;;;21.70;16.20;;;2.30;99.90;;;;;;5109659;28;20216;-78
2023/01/25 00:06:58;;;;;;;22.30;16.48;;;2.30;99.90;;;;;;5099882;28;20202;-80
2023/01/25 00:09:26;;;;;;;24.63;17.98;;;2.30;99.90;;;;;;5111748;27;20719;-78
2023/01/25 00:11:55;;;;;;;20.38;16.20;;;2.20;99.90;;;;;;5102037;28;20300;-77
2023/01/25 00:14:22;;;;;;;20.95;15.60;;;2.20;99.90;;;;;;5112401;28;20209;-78
2023/01/25 00:16:53;;;;;;;21.70;16.08;;;2.20;99.90;;;;;;5097840;28;20197;-78
2023/01/25 00:19:20;;;;;;;21.08;16.15;;;2.30;99.90;;;;;;5110825;27;20194;-78
2023/01/25 00:21:48;;;;;;;20.25;14.95;;;2.20;99.90;;;;;;5102033;27;20193;-77
2023/01/25 00:24:15;;;;;;;27.88;18.80;;;2.30;99.90;;;;;;5107061;27;20198;-78
2023/01/25 00:26:43;;;;;;;22.02;16.50;;;2.20;99.90;;;;;;5103428;28;20704;-78
2023/01/25 00:29:13;;;;;;;22.80;16.50;;;2.10;99.90;;;;;;5099333;28;20280;-77
2023/01/25 00:31:53;;;;;;;22.00;17.13;;;2.10;99.90;;;;;;5105603;28;20198;-78
2023/01/25 00:34:49;;;;;;;24.30;16.92;;;2.20;99.90;;;;;;5112259;27;20288;-78
2023/01/25 00:37:24;;;;;;;22.35;17.67;;;2.10;99.90;;;;;;5099598;28;20226;-79
2023/01/25 00:39:51;;;;;;;22.10;16.98;;;2.10;99.90;;;;;;5103310;27;20204;-79
2023/01/25 00:42:20;;;;;;;23.25;16.92;;;2.10;99.90;;;;;;5099109;27;20273;-79
2023/01/25 00:44:47;;;;;;;23.20;15.75;;;2.20;99.90;;;;;;5106521;27;20324;-78
2023/01/25 00:47:15;;;;;;;28.23;19.10;;;2.20;99.90;;;;;;5106749;28;20224;-77
2023/01/25 00:49:44;;;;;;;24.30;19.23;;;2.10;99.90;;;;;;5102727;27;20240;-78
2023/01/25 00:52:11;;;;;;;22.40;17.63;;;2.20;99.90;;;;;;5102649;27;20345;-79
2023/01/25 00:54:39;;;;;;;26.30;18.50;;;2.20;99.90;;;;;;5107499;27;20283;-77
2023/01/25 00:57:06;;;;;;;23.80;18.27;;;2.10;99.90;;;;;;5114105;27;20648;-78
2023/01/25 00:59:33;;;;;;;23.20;17.50;;;2.10;99.90;;;;;;5109757;28;20286;-79
2023/01/25 01:39:58;;;;;;;29.08;21.67;;;2.00;99.90;;;;;;4918286;29;20196;-86
2023/01/25 02:12:55;;;;;;;35.85;21.88;;;1.90;99.90;;;;;;5079609;28;20223;-86
2023/01/25 02:18:44;;;;;;;29.48;18.98;;;2.00;99.90;;;;;;5097023;28;20191;-87
2023/01/25 02:21:11;;;;;;;29.45;19.90;;;1.90;99.90;;;;;;5084837;28;20199;-87
2023/01/25 02:23:47;;;;;;;31.67;22.52;;;1.90;99.90;;;;;;5092764;28;20195;-87
2023/01/25 02:26:17;;;;;;;26.98;20.85;;;1.80;99.90;;;;;;5091420;28;20183;-88
2023/01/25 02:28:49;;;;;;;24.90;19.25;;;2.00;99.90;;;;;;5097221;28;20202;-88
2023/01/25 02:31:16;;;;;;;33.65;21.55;;;1.90;99.90;;;;;;5096248;28;20186;-88
2023/01/25 02:33:44;;;;;;;31.55;20.70;;;1.90;99.90;;;;;;5083450;28;20223;-87
2023/01/25 02:36:21;;;;;;;32.40;23.98;;;1.80;99.90;;;;;;5082113;28;20225;-87
2023/01/25 02:38:53;;;;;;;29.38;22.10;;;1.90;99.90;;;;;;5082213;28;20203;-86
2023/01/25 02:41:27;;;;;;;31.20;23.35;;;1.90;99.90;;;;;;5084358;28;20187;-87
2023/01/25 02:43:54;;;;;;;31.73;23.10;;;2.00;99.90;;;;;;5084178;28;20231;-86
2023/01/25 02:46:26;;;;;;;30.13;22.17;;;2.10;99.90;;;;;;5081730;28;20228;-87
2023/01/25 02:48:53;;;;;;;30.80;22.35;;;2.20;99.90;;;;;;5076942;28;20203;-87
2023/01/25 02:51:21;;;;;;;28.13;20.38;;;2.20;99.90;;;;;;5076897;28;20205;-86
2023/01/25 02:53:49;;;;;;;34.17;23.27;;;2.10;99.90;;;;;;5080593;28;20230;-86
2023/01/25 02:56:16;;;;;;;32.28;22.83;;;2.10;99.90;;;;;;5083316;28;20242;-87
2023/01/25 02:58:44;;;;;;;34.38;25.00;;;2.20;99.90;;;;;;5073552;28;20231;-87
2023/01/25 03:01:12;;;;;;;32.88;23.90;;;2.20;99.90;;;;;;5079729;28;20289;-86
2023/01/25 03:03:39;;;;;;;36.50;24.23;;;2.20;99.90;;;;;;5081921;28;20203;-86
2023/01/25 03:06:07;;;;;;;34.17;25.35;;;2.10;99.90;;;;;;5080749;28;20285;-86
2023/01/25 03:08:34;;;;;;;34.55;24.38;;;2.10;99.90;;;;;;5080098;28;20199;-86
2023/01/25 03:11:02;;;;;;;34.00;23.40;;;2.20;99.90;;;;;;5079332;28;20234;-87
2023/01/25 03:13:29;;;;;;;39.75;26.33;;;2.30;99.90;;;;;;5076982;28;20229;-87
2023/01/25 03:16:02;;;;;;;32.13;22.17;;;2.30;99.90;;;;;;5079625;28;20210;-86
2023/01/25 03:18:29;;;;;;;37.90;24.88;;;2.00;99.90;;;;;;5075618;28;20222;-87
2023/01/25 03:20:55;;;;;;;34.55;24.83;;;1.90;99.90;;;;;;5079957;28;20213;-86
2023/01/25 03:23:23;;;;;;;37.97;24.65;;;1.90;99.90;;;;;;5080285;28;20213;-86
2023/01/25 03:25:49;;;;;;;35.03;23.80;;;1.90;99.90;;;;;;5078035;28;20262;-86
2023/01/25 03:28:16;;;;;;;37.05;26.15;;;1.90;99.90;;;;;;5077299;28;20259;-87
2023/01/25 03:30:43;;;;;;;31.70;24.15;;;1.90;99.90;;;;;;5077896;28;20228;-87
2023/01/25 03:33:11;;;;;;;44.05;26.92;;;1.70;99.90;;;;;;5077958;28;20317;-88
2023/01/25 03:35:38;;;;;;;35.25;24.40;;;1.80;99.90;;;;;;5077941;28;20755;-87
2023/01/25 03:38:05;;;;;;;39.67;24.80;;;1.50;99.90;;;;;;5077294;28;20310;-89
2023/01/25 03:40:32;;;;;;;39.85;26.70;;;1.60;99.90;;;;;;5079164;28;20207;-88
2023/01/25 03:42:59;;;;;;;43.03;28.05;;;1.70;99.90;;;;;;5088749;28;20646;-87
2023/01/25 03:45:26;;;;;;;40.80;28.17;;;1.60;99.90;;;;;;5088295;28;20202;-86
2023/01/25 03:47:53;;;;;;;43.80;27.83;;;1.60;99.90;;;;;;5082089;28;20655;-87
2023/01/25 03:50:21;;;;;;;44.40;27.63;;;1.70;99.90;;;;;;5081147;28;20209;-87
2023/01/25 03:53:02;;;;;;;44.60;29.55;;;1.60;99.90;;;;;;5085846;28;20249;-87
2023/01/25 03:55:29;;;;;;;48.30;28.60;;;1.60;99.90;;;;;;5074441;28;20207;-87
2023/01/25 03:57:56;;;;;;;46.83;28.45;;;1.70;99.90;;;;;;5088842;28;20291;-87
2023/01/25 04:00:23;;;;;;;45.97;29.70;;;1.80;99.90;;;;;;5075741;28;20302;-87
2023/01/25 04:02:49;;;;;;;44.67;29.10;;;1.90;99.90;;;;;;5081363;28;20203;-87
2023/01/25 04:05:17;;;;;;;45.75;30.42;;;1.90;99.90;;;;;;5082201;28;20191;-87
2023/01/25 04:07:45;;;;;;;51.88;33.78;;;1.90;99.90;;;;;;5082395;28;20230;-86
2023/01/25 04:10:12;;;;;;;53.40;31.25;;;1.80;99.90;;;;;;5081794;28;20208;-85
2023/01/25 04:12:39;;;;;;;51.25;32.60;;;1.90;99.90;;;;;;5079355;28;20242;-87
2023/01/25 04:15:07;;;;;;;48.10;31.23;;;1.90;99.90;;;;;;5070070;28;20290;-87
2023/01/25 04:17:34;;;;;;;52.80;32.65;;;1.80;99.90;;;;;;5084454;28;20276;-86
2023/01/25 04:20:01;;;;;;;54.05;34.25;;;1.80;99.90;;;;;;5080648;28;20202;-86
2023/01/25 04:22:28;;;;;;;47.40;29.10;;;1.60;99.90;;;;;;5079530;28;20329;-86
2023/01/25 04:24:56;;;;;;;50.90;32.80;;;1.60;99.90;;;;;;5082331;28;20230;-87
2023/01/25 04:27:23;;;;;;;46.97;29.30;;;1.70;99.90;;;;;;5081824;28;20317;-86
2023/01/25 04:29:50;;;;;;;43.25;28.73;;;1.60;99.90;;;;;;5081566;28;20203;-86
2023/01/25 04:32:17;;;;;;;44.08;27.45;;;1.70;99.90;;;;;;5082414;28;20275;-86
2023/01/25 04:34:43;;;;;;;46.20;29.08;;;1.80;99.90;;;;;;5094027;28;20234;-87
2023/01/25 04:37:13;;;;;;;50.50;30.00;;;1.70;99.90;;;;;;5098051;28;20204;-86
2023/01/25 04:39:42;;;;;;;49.72;30.98;;;1.60;99.90;;;;;;5099925;28;20186;-87
2023/01/25 04:42:10;;;;;;;47.20;29.27;;;1.50;99.90;;;;;;5096422;28;20172;-87
2023/01/25 04:44:37;;;;;;;50.83;30.88;;;1.70;99.90;;;;;;5085587;28;20200;-87
2023/01/25 04:47:04;;;;;;;48.83;30.35;;;1.80;99.90;;;;;;5069175;28;20255;-86
2023/01/25 04:49:31;;;;;;;47.20;26.25;;;1.70;99.90;;;;;;5089731;28;20221;-87
2023/01/25 04:51:58;;;;;;;41.30;26.63;;;1.70;99.90;;;;;;5091376;28;20211;-86
2023/01/25 04:54:25;;;;;;;45.00;25.67;;;1.70;99.90;;;;;;5095284;28;20241;-85
2023/01/25 04:56:52;;;;;;;42.17;26.23;;;1.80;99.90;;;;;;5092238;28;20226;-85
2023/01/25 04:59:20;;;;;;;45.90;28.20;;;1.60;99.90;;;;;;5077527;28;20212;-87
2023/01/25 05:01:47;;;;;;;46.50;27.42;;;1.70;99.90;;;;;;5078067;28;20203;-87
2023/01/25 05:04:14;;;;;;;49.25;28.27;;;1.70;99.90;;;;;;5084121;28;20275;-87
2023/01/25 05:06:41;;;;;;;45.50;28.20;;;1.50;99.90;;;;;;5080740;28;20239;-88
2023/01/25 05:09:09;;;;;;;43.42;24.48;;;1.70;99.90;;;;;;5084153;28;20218;-87
2023/01/25 05:11:35;;;;;;;50.38;27.98;;;1.60;99.90;;;;;;5076990;28;20230;-86
2023/01/25 05:14:02;;;;;;;47.63;24.85;;;1.60;99.90;;;;;;5091088;28;20231;-87
2023/01/25 05:16:31;;;;;;;39.33;26.40;;;1.50;99.90;;;;;;5081289;28;20218;-87
2023/01/25 05:18:58;;;;;;;43.67;25.42;;;1.50;99.90;;;;;;5084841;28;20286;-87
2023/01/25 05:24:10;;;;;;;46.72;26.25;;;1.60;99.90;;;;;;5080660;28;20194;-86
2023/01/25 05:29:21;;;;;;;45.67;24.70;;;1.60;99.90;;;;;;5087423;28;20205;-86
2023/01/25 05:31:49;;;;;;;39.05;24.45;;;1.40;99.90;;;;;;5093424;28;20236;-87
2023/01/25 05:34:16;;;;;;;47.03;26.95;;;1.40;99.90;;;;;;5092022;28;20218;-86
2023/01/25 05:36:43;;;;;;;42.47;24.60;;;1.40;99.90;;;;;;5091551;28;20259;-86
2023/01/25 05:39:10;;;;;;;44.72;28.55;;;1.30;99.90;;;;;;5084006;28;20290;-86
2023/01/25 05:41:37;;;;;;;46.58;26.48;;;1.30;99.90;;;;;;5083399;28;20206;-86
2023/01/25 05:44:04;;;;;;;39.35;25.08;;;1.30;99.90;;;;;;5083414;28;20204;-87
2023/01/25 05:46:31;;;;;;;41.90;25.42;;;1.30;99.90;;;;;;5090948;28;20217;-87
2023/01/25 05:49:00;;;;;;;42.08;25.55;;;1.40;99.90;;;;;;5085935;28;20238;-87
2023/01/25 05:51:27;;;;;;;44.55;25.77;;;1.40;99.90;;;;;;5084212;28;20202;-86
2023/01/25 05:53:55;;;;;;;52.53;25.67;;;1.30;99.90;;;;;;5081687;28;20814;-87
2023/01/25 05:56:22;;;;;;;51.17;28.75;;;1.20;99.90;;;;;;5079505;28;20206;-87
2023/01/25 05:58:53;;;;;;;49.58;26.98;;;1.10;99.90;;;;;;5075494;28;20282;-87
2023/01/25 06:01:21;;;;;;;51.83;28.23;;;1.00;99.90;;;;;;5081095;28;20329;-87
2023/01/25 06:03:48;;;;;;;45.22;26.98;;;1.10;99.90;;;;;;5078847;28;20262;-88
2023/01/25 06:06:16;;;;;;;44.00;28.48;;;1.20;99.90;;;;;;5081108;28;20230;-88
2023/01/25 06:08:43;;;;;;;48.78;27.85;;;1.40;99.90;;;;;;5081874;28;20213;-87
2023/01/25 06:11:13;;;;;;;49.95;29.20;;;1.40;99.90;;;;;;5084986;28;20339;-88
2023/01/25 06:13:40;;;;;;;45.40;27.70;;;1.40;99.90;;;;;;5093501;28;20269;-86
2023/01/25 06:16:07;;;;;;;59.13;28.85;;;1.30;99.90;;;;;;5096597;28;20209;-88
2023/01/25 06:18:35;;;;;;;55.00;31.27;;;1.20;99.90;;;;;;5085371;28;20187;-88
2023/01/25 06:21:04;;;;;;;48.20;28.38;;;1.20;99.90;;;;;;5097302;28;20198;-87
2023/01/25 06:23:33;;;;;;;54.80;31.42;;;1.30;99.90;;;;;;5094560;28;20183;-87
2023/01/25 06:26:01;;;;;;;51.53;30.23;;;1.40;99.90;;;;;;5097012;28;20205;-87
2023/01/25 06:28:30;;;;;;;49.58;29.65;;;1.40;99.90;;;;;;5075898;28;20243;-87
2023/01/25 06:31:04;;;;;;;45.05;28.95;;;1.40;99.90;;;;;;5092441;28;20219;-87
2023/01/25 06:33:30;;;;;;;48.80;28.45;;;1.50;99.90;;;;;;5094039;28;20234;-87
2023/01/25 06:36:00;;;;;;;53.90;30.92;;;1.50;99.90;;;;;;5093355;28;20185;-89
2023/01/25 06:38:29;;;;;;;47.35;27.90;;;1.60;99.90;;;;;;5093847;28;20215;-86
2023/01/25 06:41:01;;;;;;;43.97;27.35;;;1.60;99.90;;;;;;5092707;28;20262;-87
2023/01/25 06:43:29;;;;;;;47.72;29.30;;;1.60;99.90;;;;;;5089831;28;20199;-87
2023/01/25 06:45:59;;;;;;;48.00;30.30;;;1.50;99.90;;;;;;5085187;28;20211;-87
2023/01/25 06:48:27;;;;;;;52.50;30.08;;;1.50;99.90;;;;;;5070456;28;20239;-87
2023/01/25 06:50:55;;;;;;;51.05;28.25;;;1.30;99.90;;;;;;5081183;28;20199;-85
2023/01/25 06:53:25;;;;;;;44.35;27.33;;;1.40;99.90;;;;;;5079403;28;20227;-85
2023/01/25 06:55:58;;;;;;;48.20;28.02;;;1.30;99.90;;;;;;5090817;28;20210;-85
2023/01/25 06:58:27;;;;;;;48.88;26.73;;;1.30;99.90;;;;;;5090442;28;20228;-84
2023/01/25 07:00:54;;;;;;;44.75;27.52;;;1.30;99.90;;;;;;5087189;28;20198;-86
2023/01/25 07:03:21;;;;;;;50.17;27.35;;;1.20;99.90;;;;;;5096127;28;20186;-84
2023/01/25 07:05:49;;;;;;;47.38;27.70;;;1.30;99.90;;;;;;5096794;28;20183;-82
2023/01/25 07:08:17;;;;;;;44.47;25.48;;;1.20;99.90;;;;;;5094325;28;20252;-83
2023/01/25 07:10:44;;;;;;;48.20;27.63;;;1.20;99.90;;;;;;5095947;28;20241;-82
2023/01/25 07:13:10;;;;;;;44.42;27.33;;;1.30;99.90;;;;;;5096119;28;20261;-81
2023/01/25 07:15:39;;;;;;;47.42;28.67;;;1.10;99.90;;;;;;5093508;28;20191;-83
2023/01/25 07:18:08;;;;;;;47.15;27.40;;;1.10;99.90;;;;;;5116341;22;20767;-77
2023/01/25 07:20:34;;;;;;;47.75;28.67;;;1.20;99.90;;;;;;5125273;28;20343;-76
2023/01/25 07:23:01;;;;;;;45.28;26.17;;;1.20;99.90;;;;;;5122950;28;20238;-78
2023/01/25 07:25:29;;;;;;;48.88;28.05;;;1.10;99.90;;;;;;5138194;27;20237;-76
2023/01/25 07:27:56;;;;;;;48.53;27.67;;;1.10;99.90;;;;;;5139735;27;20196;-80
2023/01/25 07:30:23;;;;;;;53.63;30.30;;;1.10;99.90;;;;;;5140122;27;20292;-75
2023/01/25 07:32:51;;;;;;;52.22;29.85;;;1.30;99.90;;;;;;5114340;28;20241;-75
2023/01/25 07:35:18;;;;;;;53.35;31.23;;;1.20;99.90;;;;;;5105858;28;20230;-76
2023/01/25 07:37:45;;;;;;;54.30;28.80;;;1.20;99.90;;;;;;5115519;28;20249;-77
2023/01/25 07:40:14;;;;;;;52.55;29.13;;;1.20;99.90;;;;;;5107465;28;20225;-78
2023/01/25 07:42:41;;;;;;;53.15;27.85;;;1.30;99.90;;;;;;5101788;28;20249;-74
2023/01/25 07:45:09;;;;;;;50.90;30.40;;;1.30;99.90;;;;;;5110809;28;20240;-76
2023/01/25 07:47:36;;;;;;;54.72;30.10;;;1.40;99.90;;;;;;5113120;28;20200;-74
2023/01/25 07:50:05;;;;;;;52.05;31.42;;;1.50;99.90;;;;;;5114935;28;20208;-76
2023/01/25 07:52:32;;;;;;;52.85;29.90;;;1.40;99.90;;;;;;5123681;28;20200;-77
2023/01/25 07:54:59;;;;;;;48.15;29.73;;;1.50;99.90;;;;;;5121217;28;20741;-76
2023/01/25 07:57:27;;;;;;;48.50;28.77;;;1.40;99.90;;;;;;5114715;28;20203;-76
2023/01/25 07:59:54;;;;;;;48.20;28.40;;;1.40;99.90;;;;;;5103006;28;20558;-75
2023/01/25 08:02:21;;;;;;;52.05;30.63;;;1.30;99.90;;;;;;5115580;28;20275;-77
2023/01/25 08:04:47;;;;;;;52.67;32.35;;;1.30;99.90;;;;;;5115010;28;20255;-75
2023/01/25 08:07:18;;;;;;;47.72;28.95;;;1.40;99.90;;;;;;5115533;28;20202;-76
2023/01/25 08:09:45;;;;;;;52.00;31.33;;;1.40;99.90;;;;;;5113895;28;20235;-76
2023/01/25 08:12:12;;;;;;;52.03;30.40;;;1.40;99.90;;;;;;5114289;28;20667;-75
2023/01/25 08:14:41;;;;;;;52.63;31.05;;;1.20;99.90;;;;;;5111580;28;20224;-77
2023/01/25 08:17:08;;;;;;;44.00;27.80;;;1.10;99.90;;;;;;5115331;28;20407;-75
2023/01/25 08:19:36;;;;;;;48.47;29.42;;;1.00;99.90;;;;;;5114512;28;20248;-76
2023/01/25 08:22:03;;;;;;;52.25;29.70;;;1.10;99.90;;;;;;5108775;28;20203;-76
2023/01/25 08:24:31;;;;;;;50.47;29.15;;;1.10;99.90;;;;;;5113131;28;20197;-77
2023/01/25 08:26:58;;;;;;;50.25;29.08;;;1.10;99.90;;;;;;5108120;27;20215;-77
2023/01/25 08:29:26;;;;;;;52.63;29.83;;;1.10;99.90;;;;;;5125835;27;20234;-76
2023/01/25 08:31:54;;;;;;;55.67;30.63;;;1.20;99.90;;;;;;5104684;28;20225;-76
2023/01/25 08:34:21;;;;;;;49.47;29.92;;;1.40;99.90;;;;;;5105193;28;20322;-76
2023/01/25 08:36:48;;;;;;;61.40;32.22;;;1.30;99.90;;;;;;5102320;28;20743;-75
2023/01/25 08:39:21;;;;;;;55.75;30.00;;;1.20;99.90;;;;;;5101881;28;20203;-78
2023/01/25 08:41:50;;;;;;;58.50;34.30;;;1.30;99.90;;;;;;5108046;28;20213;-78
2023/01/25 08:44:21;;;;;;;54.53;32.80;;;1.40;99.90;;;;;;5099920;28;20676;-75
2023/01/25 08:46:48;;;;;;;55.13;30.38;;;1.30;99.90;;;;;;5111933;28;20231;-76
2023/01/25 08:49:15;;;;;;;52.83;31.88;;;1.30;99.90;;;;;;5099361;28;20203;-76
2023/01/25 08:51:42;;;;;;;58.53;31.85;;;1.30;99.90;;;;;;5099528;28;20208;-75
2023/01/25 08:54:12;;;;;;;62.05;33.08;;;1.30;99.90;;;;;;5100497;28;20230;-77
2023/01/25 08:56:39;;;;;;;56.65;33.25;;;1.30;99.90;;;;;;5106797;28;20745;-77
2023/01/25 08:59:11;;;;;;;55.58;32.38;;;1.30;99.90;;;;;;5105564;28;20234;-78
2023/01/25 09:01:38;;;;;;;54.17;32.78;;;1.20;99.90;;;;;;5107888;28;20278;-74
2023/01/25 09:04:05;;;;;;;58.97;31.70;;;1.20;99.90;;;;;;5114131;28;20236;-76
2023/01/25 09:06:33;;;;;;;60.33;30.92;;;1.30;99.90;;;;;;5113767;27;20217;-75
2023/01/25 09:09:00;;;;;;;57.10;32.67;;;1.20;99.90;;;;;;5110737;28;20203;-74
2023/01/25 09:11:27;;;;;;;57.75;31.20;;;1.20;99.90;;;;;;5107227;28;20226;-74
2023/01/25 09:13:54;;;;;;;62.15;31.52;;;1.30;99.90;;;;;;5105919;28;20214;-73
2023/01/25 09:16:28;;;;;;;57.58;32.60;;;1.30;99.90;;;;;;5104805;28;20635;-75
2023/01/25 09:18:55;;;;;;;52.58;30.50;;;1.40;99.90;;;;;;5106941;28;20218;-75
2023/01/25 09:21:23;;;;;;;52.05;30.13;;;1.50;99.90;;;;;;5103406;28;20230;-76
2023/01/25 09:23:52;;;;;;;45.88;27.38;;;1.60;99.90;;;;;;5107326;28;20214;-75
2023/01/25 09:26:19;;;;;;;49.17;29.08;;;1.60;99.90;;;;;;5105666;28;20217;-74
2023/01/25 09:28:48;;;;;;;46.72;29.25;;;1.60;99.90;;;;;;5106433;28;20217;-75
2023/01/25 09:31:19;;;;;;;48.92;26.80;;;1.70;99.90;;;;;;5108602;28;20238;-75
2023/01/25 09:33:48;;;;;;;46.35;28.15;;;1.60;99.90;;;;;;5107744;28;20237;-74
2023/01/25 09:36:15;;;;;;;50.50;28.63;;;1.70;99.90;;;;;;5101078;28;20221;-75
2023/01/25 09:38:42;;;;;;;40.55;25.33;;;1.60;99.90;;;;;;5114536;28;20274;-75
2023/01/25 09:41:27;;;;;;;45.03;26.05;;;1.80;99.90;;;;;;5101084;28;20285;-74
2023/01/25 09:44:12;;;;;;;45.70;26.13;;;1.80;99.90;;;;;;5105294;28;20229;-75
2023/01/25 09:46:41;;;;;;;46.30;28.98;;;1.70;99.90;;;;;;5104923;28;20714;-77
2023/01/25 09:49:26;;;;;;;42.65;26.52;;;1.60;99.90;;;;;;5108537;28;20227;-76
2023/01/25 09:52:08;;;;;;;44.63;24.98;;;1.70;99.90;;;;;;5107694;28;20202;-75
2023/01/25 09:54:40;;;;;;;45.03;27.38;;;1.50;99.90;;;;;;5105127;28;20316;-75
2023/01/25 09:57:16;;;;;;;51.15;28.10;;;1.60;99.90;;;;;;5109228;28;20197;-76
2023/01/25 09:59:45;;;;;;;47.58;27.92;;;1.50;99.90;;;;;;5106130;28;20291;-75
2023/01/25 10:02:28;;;;;;;45.83;29.42;;;1.50;99.90;;;;;;5110270;28;20196;-74
2023/01/25 10:05:04;;;;;;;42.05;24.83;;;1.70;99.90;;;;;;5100385;28;20296;-75
2023/01/25 10:07:57;;;;;;;43.38;27.75;;;1.60;99.90;;;;;;5091663;28;20209;-75
2023/01/25 10:10:30;;;;;;;38.63;22.83;;;1.60;99.90;;;;;;5108398;28;20274;-74
2023/01/25 10:12:57;;;;;;;41.20;25.23;;;1.60;99.90;;;;;;5106286;28;20739;-75
2023/01/25 10:15:28;;;;;;;35.33;22.63;;;1.70;99.90;;;;;;5112659;28;20304;-75
2023/01/25 10:18:03;;;;;;;35.25;22.60;;;1.70;99.90;;;;;;5105355;28;20296;-74
2023/01/25 10:20:43;;;;;;;40.35;25.23;;;1.70;99.90;;;;;;5109874;28;20253;-73
2023/01/25 10:23:34;;;;;;;39.50;25.55;;;1.70;99.90;;;;;;5106782;28;20289;-74
2023/01/25 10:26:04;;;;;;;37.85;24.45;;;1.50;99.90;;;;;;5107925;28;20227;-73
2023/01/25 10:28:40;;;;;;;40.45;24.05;;;1.50;99.90;;;;;;5094326;28;20247;-74
2023/01/25 10:31:14;;;;;;;44.80;28.52;;;1.30;99.90;;;;;;5103035;28;20606;-73
2023/01/25 10:33:44;;;;;;;46.45;25.27;;;1.40;99.90;;;;;;5101162;28;20610;-75
2023/01/25 10:36:16;;;;;;;41.33;25.33;;;1.30;99.90;;;;;;5095275;28;20221;-74
2023/01/25 10:38:45;;;;;;;39.83;24.73;;;1.50;99.90;;;;;;5101051;28;20293;-72
2023/01/25 10:41:18;;;;;;;48.75;28.55;;;1.50;99.90;;;;;;5109486;28;20201;-73
2023/01/25 10:43:45;;;;;;;48.50;28.88;;;1.40;99.90;;;;;;5106540;28;20226;-76
2023/01/25 10:46:20;;;;;;;50.65;29.52;;;1.20;99.90;;;;;;5107485;28;20245;-73
2023/01/25 10:48:47;;;;;;;56.33;30.50;;;1.00;99.90;;;;;;5105847;28;20200;-73
2023/01/25 10:51:31;;;;;;;57.95;30.52;;;1.00;99.90;;;;;;5104430;28;20232;-75
2023/01/25 10:54:03;;;;;;;56.95;28.67;;;1.10;99.90;;;;;;5107940;28;20201;-74
2023/01/25 10:56:32;;;;;;;63.30;31.55;;;1.10;99.90;;;;;;5106953;28;20645;-74
2023/01/25 10:59:17;;;;;;;54.65;30.88;;;1.10;99.90;;;;;;5109740;28;20235;-74
2023/01/25 11:01:44;;;;;;;51.00;26.65;;;1.20;99.90;;;;;;5106834;28;20239;-74
2023/01/25 11:04:33;;;;;;;59.75;31.73;;;1.10;99.90;;;;;;5105610;28;20289;-74
2023/01/25 11:07:04;;;;;;;54.65;32.30;;;1.30;99.90;;;;;;5112068;28;20255;-73
2023/01/25 11:09:34;;;;;;;50.80;32.05;;;1.40;99.90;;;;;;5100988;28;20307;-74
2023/01/25 11:12:03;;;;;;;54.70;30.42;;;1.30;99.90;;;;;;5111693;28;20243;-75
2023/01/25 11:14:32;;;;;;;53.17;29.70;;;1.30;99.90;;;;;;5104081;28;20237;-77
2023/01/25 11:17:01;;;;;;;55.65;29.70;;;1.30;99.90;;;;;;5116314;28;20212;-76
2023/01/25 11:19:32;;;;;;;55.47;29.83;;;1.20;99.90;;;;;;5112134;28;20237;-75
2023/01/25 11:22:03;;;;;;;57.40;32.97;;;1.00;99.90;;;;;;5111886;28;20656;-74
2023/01/25 11:24:31;;;;;;;53.40;31.35;;;1.00;99.90;;;;;;5105309;28;20294;-74
2023/01/25 11:27:19;;;;;;;56.78;30.00;;;1.10;99.90;;;;;;5110497;28;20244;-75
2023/01/25 11:29:48;;;;;;;53.15;31.40;;;1.20;99.90;;;;;;5107018;28;20582;-75
2023/01/25 11:32:21;;;;;;;53.28;29.70;;;1.10;99.90;;;;;;5115143;28;20197;-74
2023/01/25 11:34:50;;;;;;;60.90;31.17;;;1.20;99.90;;;;;;5107722;28;20287;-74
2023/01/25 11:37:49;;;;;;;50.65;29.75;;;1.20;99.90;;;;;;5103007;28;20206;-73
2023/01/25 11:40:27;;;;;;;57.85;32.47;;;1.30;99.90;;;;;;5115192;28;20210;-79
2023/01/25 11:43:03;;;;;;;56.22;30.65;;;1.10;99.90;;;;;;5113663;28;20216;-74
2023/01/25 11:46:02;;;;;;;58.90;31.38;;;1.00;99.90;;;;;;5103837;28;20245;-76
2023/01/25 11:48:49;;;;;;;54.13;32.25;;;1.00;99.90;;;;;;5083375;28;20198;-75
2023/01/25 11:51:23;;;;;;;51.17;28.80;;;1.10;99.90;;;;;;5115933;28;20277;-80
2023/01/25 11:54:06;;;;;;;50.78;27.33;;;1.00;99.90;;;;;;5108995;28;20651;-76
2023/01/25 11:56:48;;;;;;;52.22;27.40;;;1.00;99.90;;;;;;5104428;28;20307;-75
2023/01/25 11:59:47;;;;;;;60.72;31.05;;;0.90;99.90;;;;;;5116469;28;20235;-73
2023/01/25 12:02:43;;;;;;;65.80;28.58;;;0.80;99.90;;;;;;5106205;28;20229;-74
2023/01/25 12:05:32;;;;;;;55.33;29.42;;;0.70;99.90;;;;;;5110578;28;20302;-77
2023/01/25 12:08:12;;;;;;;55.88;29.55;;;0.60;99.90;;;;;;5099702;28;20228;-76
2023/01/25 12:10:49;;;;;;;56.70;30.02;;;0.60;99.90;;;;;;5102018;28;20245;-75
2023/01/25 12:13:24;;;;;;;65.57;31.95;;;0.70;99.90;;;;;;5104872;28;20285;-75
2023/01/25 12:16:15;;;;;;;57.50;30.98;;;0.70;99.90;;;;;;5108867;28;20251;-74
2023/01/25 12:19:00;;;;;;;66.22;32.15;;;0.80;99.90;;;;;;5101479;28;20214;-74
2023/01/25 12:21:48;;;;;;;57.33;29.73;;;0.90;99.90;;;;;;5114373;28;20651;-74
2023/01/25 12:24:41;;;;;;;60.60;32.17;;;0.90;99.90;;;;;;5114063;28;20221;-75
2023/01/25 12:27:25;;;;;;;61.60;32.83;;;0.80;99.90;;;;;;5111873;28;20201;-73
2023/01/25 12:29:58;;;;;;;53.60;30.23;;;0.80;99.90;;;;;;5109265;28;20198;-74
2023/01/25 12:32:34;;;;;;;62.45;31.38;;;0.70;99.90;;;;;;5120383;28;20203;-74
2023/01/25 12:35:15;;;;;;;59.92;31.80;;;0.90;99.90;;;;;;5102028;28;20536;-75
2023/01/25 12:37:46;;;;;;;63.00;32.05;;;0.70;99.90;;;;;;5111792;28;20238;-76
2023/01/25 12:40:18;;;;;;;53.30;32.00;;;0.80;99.90;;;;;;5111783;28;20209;-72
2023/01/25 12:42:52;;;;;;;60.53;32.58;;;0.90;99.90;;;;;;5110020;28;20208;-74
2023/01/25 12:45:24;;;;;;;56.75;31.67;;;1.10;99.90;;;;;;5095077;28;20219;-74
2023/01/25 12:47:56;;;;;;;53.95;28.15;;;1.10;99.90;;;;;;5111996;28;20293;-75
2023/01/25 12:50:29;;;;;;;56.10;30.42;;;1.20;99.90;;;;;;5113796;28;20308;-77
2023/01/25 12:53:02;;;;;;;58.70;32.22;;;1.10;99.90;;;;;;5102239;28;20224;-75
2023/01/25 12:55:29;;;;;;;58.28;31.95;;;1.00;99.90;;;;;;5098490;28;20240;-74
2023/01/25 12:58:01;;;;;;;59.00;29.92;;;0.90;99.90;;;;;;5105371;28;20579;-74
2023/01/25 13:00:42;;;;;;;49.28;28.88;;;0.90;99.90;;;;;;5105366;28;20198;-76
2023/01/25 13:03:28;;;;;;;62.17;31.38;;;0.90;99.90;;;;;;5102438;28;20574;-75
2023/01/25 13:06:01;;;;;;;48.53;28.95;;;1.00;99.90;;;;;;5105921;28;20290;-75
2023/01/25 13:08:43;;;;;;;51.25;29.33;;;1.00;99.90;;;;;;5098752;28;20255;-75
2023/01/25 13:11:16;;;;;;;57.60;30.65;;;0.80;99.90;;;;;;5097498;28;20206;-76
2023/01/25 13:13:44;;;;;;;53.70;31.08;;;0.70;99.90;;;;;;5112280;27;20209;-76
2023/01/25 13:16:42;;;;;;;55.58;29.70;;;0.80;99.90;;;;;;5114596;27;20746;-74
2023/01/25 13:19:40;;;;;;;54.47;29.35;;;0.90;99.90;;;;;;5065422;27;20210;-74
2023/01/25 13:22:10;;;;;;;62.88;33.47;;;0.80;99.90;;;;;;5111155;27;20205;-76
2023/01/25 13:25:10;;;;;;;59.08;30.15;;;0.70;99.90;;;;;;5100596;27;20678;-75
2023/01/25 13:27:38;;;;;;;59.22;33.88;;;0.80;99.90;;;;;;5115324;27;20280;-76
2023/01/25 13:30:28;;;;;;;52.45;31.73;;;0.80;99.90;;;;;;5107842;27;20198;-75
2023/01/25 13:33:03;;;;;;;50.65;29.65;;;0.80;99.90;;;;;;5104594;27;20214;-78
2023/01/25 13:35:41;;;;;;;48.70;28.52;;;0.70;99.90;;;;;;5108629;28;20249;-75
2023/01/25 13:38:29;;;;;;;57.42;30.23;;;0.80;99.90;;;;;;5107122;28;20207;-73
2023/01/25 13:41:11;;;;;;;53.53;29.63;;;0.90;99.90;;;;;;5111972;28;20282;-74
2023/01/25 13:43:41;;;;;;;55.90;28.98;;;1.00;99.90;;;;;;5112212;28;20254;-74
2023/01/25 13:46:11;;;;;;;61.20;31.75;;;1.00;99.90;;;;;;5109650;28;20229;-76
2023/01/25 13:48:46;;;;;;;56.55;33.08;;;0.90;99.90;;;;;;5106841;28;20277;-77
2023/01/25 13:51:16;;;;;;;52.42;30.63;;;0.90;99.90;;;;;;5110895;28;20200;-76
2023/01/25 13:53:55;;;;;;;57.00;30.85;;;1.00;99.90;;;;;;5099207;28;20233;-77
2023/01/25 13:56:26;;;;;;;59.60;34.42;;;1.00;99.90;;;;;;5097929;28;20709;-77
2023/01/25 13:58:54;;;;;;;60.50;32.03;;;1.10;99.90;;;;;;5107119;28;20295;-76
2023/01/25 14:01:22;;;;;;;67.65;35.63;;;1.10;99.90;;;;;;5110870;28;20210;-76
2023/01/25 14:03:54;;;;;;;59.55;33.85;;;1.10;99.90;;;;;;5102927;28;20200;-76
2023/01/25 14:06:23;;;;;;;63.58;31.38;;;1.20;99.90;;;;;;5110778;28;20278;-77
2023/01/25 14:08:51;;;;;;;57.92;32.13;;;0.90;99.90;;;;;;5108100;28;20200;-76
2023/01/25 14:11:20;;;;;;;57.55;31.08;;;0.90;99.90;;;;;;5108747;28;20195;-76
2023/01/25 14:13:57;;;;;;;60.30;30.35;;;0.80;99.90;;;;;;5104746;28;20228;-76